Flight Track Log - Related Links

Times and Time Zones

All times are in EDT time to prevent confusion due to time zone crossing. See the EJA831 flight status page for this flight to view local times or setup timezone preferences in your user account.

Time Position Orientation Groundspeed Altitude Reporting Facility
EDT Latitude Longitude Course Direction KTS MPH feet Rate Location/Type
Fri 08:25:01 AM 38.0614 -84.5819 293° West 163 188 4,200  Level Indianapolis Center
Fri 08:26:03 AM 38.1064 -84.6064 337° Northwest 236 272 7,900 3,220 Climbing Indianapolis Center
Fri 08:27:04 AM 38.0753 -84.6956 246° West 278 320 10,800 3,024 Climbing Indianapolis Center
Fri 08:28:06 AM 38.1100 -84.7708 300° West 262 302 14,100 3,561 Climbing Indianapolis Center
Fri 08:29:07 AM 38.1606 -84.8422 312° West 273 314 18,100 3,073 Climbing Indianapolis Center
Fri 08:30:00 AM 37.8709 -84.9294 293° West  Level FlightAware Approximate
Fri 08:30:09 AM 38.2228 -84.9333 311° West 292 336 20,400  Level Indianapolis Center
Fri 08:31:11 AM 38.2794 -85.0189 310° West 313 360 22,900 2,488 Climbing Indianapolis Center
Fri 08:32:12 AM 38.3389 -85.1072 311° West 324 373 25,500 2,439 Climbing Indianapolis Center
Fri 08:33:14 AM 38.3944 -85.1928 310° West 316 364 27,900 2,244 Climbing Indianapolis Center
Fri 08:34:15 AM 38.4533 -85.2828 310° West 312 359 30,100 2,049 Climbing Indianapolis Center
Fri 08:35:17 AM 38.5103 -85.3675 311° West 313 360 32,100 1,756 Climbing Indianapolis Center
Fri 08:36:18 AM 38.5661 -85.4531 310° West 313 360 33,700 1,512 Climbing Indianapolis Center
Fri 08:37:20 AM 38.6233 -85.5400 310° West 319 367 35,200 1,366 Climbing Indianapolis Center
Fri 08:38:21 AM 38.6794 -85.6283 309° West 321 369 36,500 1,415 Climbing Indianapolis Center
Fri 08:39:23 AM 38.7364 -85.7153 310° West 319 367 38,100 1,403 Climbing Indianapolis Center
Fri 08:40:25 AM 38.7997 -85.8133 310° West 308 354 39,400 927 Climbing Indianapolis Center
Fri 08:41:26 AM 38.8561 -85.9006 310° West 311 358 40,000 293 Climbing Indianapolis Center
Fri 08:42:28 AM 38.9164 -85.9928 310° West 327 376 40,000  Level Indianapolis Center
Fri 08:43:30 AM 38.9789 -86.0900 310° West 343 395 40,000  Level Indianapolis Center
Fri 08:44:31 AM 39.0408 -86.1867 310° West 348 400 40,000  Level Indianapolis Center
Fri 08:45:33 AM 39.1106 -86.2753 315° West 350 403 40,000  Level Indianapolis Center
Fri 08:46:34 AM 39.1808 -86.3628 316° Northwest 350 403 40,000  Level Indianapolis Center
Fri 08:47:36 AM 39.2517 -86.4511 316° Northwest 350 403 40,000  Level Indianapolis Center
Fri 08:48:38 AM 39.3217 -86.5389 316° Northwest 348 400 40,000  Level Indianapolis Center
Fri 08:49:39 AM 39.3917 -86.6275 316° Northwest 349 402 40,000  Level Indianapolis Center
Fri 08:50:41 AM 39.4733 -86.7314 316° Northwest 349 402 40,000  Level Indianapolis Center
Fri 08:51:43 AM 39.5442 -86.8192 316° Northwest 349 402 40,000  Level Indianapolis Center
Fri 08:52:45 AM 39.6139 -86.9092 315° West 348 400 40,000  Level Indianapolis Center
Fri 08:53:46 AM 39.6850 -86.9992 316° Northwest 352 405 40,000  Level Indianapolis Center
Fri 08:54:48 AM 39.7561 -87.0889 316° Northwest 353 406 40,000  Level Indianapolis Center
Fri 08:55:50 AM 39.8278 -87.1797 316° Northwest 356 410 40,000  Level Indianapolis Center
Fri 08:56:51 AM 39.8981 -87.2728 315° West 357 411 40,000  Level Indianapolis Center
Fri 08:57:53 AM 39.9697 -87.3636 316° Northwest 357 411 40,000  Level Indianapolis Center
Fri 08:58:55 AM 40.0417 -87.4564 315° West 360 414 40,000  Level Indianapolis Center
Fri 08:59:56 AM 40.1117 -87.5483 315° West 357 411 40,000  Level Indianapolis Center
Fri 09:00:58 AM 40.1953 -87.6572 315° West 360 414 40,000  Level Indianapolis Center
Fri 09:02:00 AM 40.2667 -87.7497 315° West 359 413 40,000  Level Indianapolis Center
Fri 09:03:01 AM 40.3369 -87.8419 315° West 357 411 40,000  Level Indianapolis Center
Fri 09:04:03 AM 40.4064 -87.9339 315° West 354 407 40,000  Level Indianapolis Center
Fri 09:05:05 AM 40.4764 -88.0253 315° West 352 405 40,000  Level Indianapolis Center
Fri 09:06:13 AM 40.5472 -88.1197 315° West 354 407 40,000  Level Chicago Center
Fri 09:07:14 AM 40.6289 -88.2297 314° West 351 404 40,000  Level Chicago Center
Fri 09:08:16 AM 40.6967 -88.3197 315° West 348 400 40,000  Level Chicago Center
Fri 09:09:18 AM 40.7644 -88.4114 314° West 348 400 40,000  Level Chicago Center
Fri 09:10:20 AM 40.8467 -88.4828 327° Northwest 353 406 40,000  Level Chicago Center
Fri 09:11:21 AM 40.9308 -88.5536 328° Northwest 357 411 40,000  Level Chicago Center
Fri 09:12:23 AM 41.0139 -88.6231 328° Northwest 354 407 40,000  Level Chicago Center
Fri 09:13:26 AM 41.0989 -88.6911 329° Northwest 355 409 40,000  Level Chicago Center
Fri 09:14:27 AM 41.1992 -88.7783 327° Northwest 357 411 40,000  Level Chicago Center
Fri 09:15:29 AM 41.2839 -88.8481 328° Northwest 358 412 40,000  Level Chicago Center
Fri 09:16:30 AM 41.3683 -88.9192 328° Northwest 358 412 40,000  Level Chicago Center
Fri 09:17:32 AM 41.4544 -88.9875 329° Northwest 361 415 40,000  Level Chicago Center
Fri 09:18:34 AM 41.5372 -89.0606 327° Northwest 358 412 40,000  Level Chicago Center
Fri 09:19:36 AM 41.5953 -89.1614 308° West 347 399 40,000  Level Chicago Center
Fri 09:20:38 AM 41.6608 -89.2836 306° West 340 391 40,000  Level Chicago Center
Fri 09:21:40 AM 41.7150 -89.3853 306° West 336 387 40,000  Level Chicago Center
Fri 09:22:42 AM 41.7694 -89.4881 305° West 338 389 40,000  Level Chicago Center
Fri 09:23:43 AM 41.8219 -89.5892 305° West 332 382 40,000  Level Chicago Center
Fri 09:24:45 AM 41.8758 -89.6917 305° West 338 389 40,000  Level Chicago Center
Fri 09:25:47 AM 41.9300 -89.7953 305° West 340 391 40,000  Level Chicago Center
Fri 09:26:49 AM 41.9944 -89.9181 305° West 343 395 40,000 -532 Level Chicago Center
Fri 09:27:51 AM 42.0511 -90.0256 305° West 342 394 38,900 -1,113 Descending Chicago Center
Fri 09:28:53 AM 42.1053 -90.1333 304° West 350 403 37,700 -1,210 Descending Chicago Center
Fri 09:29:55 AM 42.1600 -90.2389 305° West 347 399 36,400 -1,258 Descending Chicago Center
Fri 09:30:57 AM 42.2144 -90.3419 306° West 342 394 35,100 -1,258 Descending Chicago Center
Fri 09:31:59 AM 42.2667 -90.4442 305° West 335 386 33,800 -1,268 Descending Chicago Center
Fri 09:33:00 AM 42.3153 -90.5419 304° West 322 371 32,500 -1,415 Descending Chicago Center
Fri 09:34:02 AM 42.3772 -90.6606 305° West 322 371 30,900 -1,500 Descending Chicago Center
Fri 09:35:04 AM 42.4450 -90.7597 313° West 363 418 29,400 -1,403 Descending Chicago Center
Fri 09:36:06 AM 42.5242 -90.8492 320° Northwest 373 429 28,000 -1,258 Descending Chicago Center
Fri 09:37:08 AM 42.6014 -90.9394 319° Northwest 371 427 26,800 -1,161 Descending Chicago Center
Fri 09:38:10 AM 42.6786 -91.0289 320° Northwest 370 426 25,600 -1,258 Descending Chicago Center
Fri 09:39:12 AM 42.7692 -91.1350 319° Northwest 363 418 24,200 -1,258 Descending Chicago Center
Fri 09:40:14 AM 42.8431 -91.2211 319° Northwest 357 411 23,000 -1,220 Descending Chicago Center
Fri 09:41:15 AM 42.9133 -91.3039 319° Northwest 342 394 21,700 -1,326 Descending Chicago Center
Fri 09:41:40 AM 42.9414 -91.3364 320° Northwest 345 397 21,100 -1,379 Descending Minneapolis Center
Fri 09:42:42 AM 43.0117 -91.4192 319° Northwest 341 392 19,700 -1,452 Descending Minneapolis Center
Fri 09:43:44 AM 43.0944 -91.5172 319° Northwest 335 386 18,100 -1,366 Descending Minneapolis Center
Fri 09:44:45 AM 43.1622 -91.5978 319° Northwest 329 379 16,900 -1,268 Descending Minneapolis Center
Fri 09:45:47 AM 43.2297 -91.6786 319° Northwest 327 376 15,500 -1,500 Descending Minneapolis Center
Fri 09:46:49 AM 43.3089 -91.7722 319° Northwest 328 377 13,800 -1,512 Descending Minneapolis Center
Fri 09:47:50 AM 43.3742 -91.8508 319° Northwest 319 367 12,400 -1,366 Descending Minneapolis Center
Fri 09:48:52 AM 43.4400 -91.9294 319° Northwest 317 365 11,000 -1,171 Descending Minneapolis Center
Fri 09:49:53 AM 43.5131 -92.0142 320° Northwest 319 367 10,000 -488 Descending Minneapolis Center
Fri 09:50:55 AM 43.5814 -92.0900 321° Northwest 321 369 10,000  Level Minneapolis Center
Fri 09:51:57 AM 43.6572 -92.1675 324° Northwest 316 364 10,000 -339 Level Minneapolis Center
Fri 09:52:59 AM 43.7225 -92.2322 324° Northwest 287 330 9,300 -1,268 Descending Minneapolis Center
Fri 09:54:00 AM 43.7886 -92.2978 324° Northwest 274 315 7,400 -1,805 Descending Minneapolis Center
Fri 09:55:02 AM 43.8461 -92.3556 324° Northwest 262 302 5,600 -1,500 Descending Minneapolis Center
Fri 09:56:04 AM 43.8961 -92.4033 325° Northwest 207 238 4,300 -1,122 Descending Minneapolis Center
Fri 09:57:05 AM 43.9294 -92.4319 328° Northwest 137 158 3,300 -829 Descending Minneapolis Center
Fri 09:58:07 AM 43.9456 -92.4617 307° West 97 112 2,600 -629 Descending Minneapolis Center
Fri 09:59:09 AM 43.9331 -92.4811 228° Southwest 74 85 2,000 -683 Descending Minneapolis Center
Fri 10:00:10 AM 43.9100 -92.4969 206° Southwest 84 97 1,200 -787 Descending Minneapolis Center
Fri 10:02:00 AM 43.9083 -92.5000 305° West  Level Estimated

Login

Don't have an account? Register now (free) for customized features, flight alerts, and more!